Port Heiden Airport
PAPH : now visible

Airfield :











YOU CAN JOIN US ON...

 
LOGIN :

Register | Disclaimer

   EN    FR    IT 

 









Legend :    VFR   Marginal VFR   IFR   Intensive IFR   Very Intensive IFR
Visi :
Ceiling :
>= 8 km
>= 3000ft
5 to 8 km
1000 to 3000 ft
1500m to 5 km
500 to 1000 ft
800 to 1500m
200 to 500 ft
< 800m
< 200 ft
Symbols :   Thunderstorms  Fog  Heavy snow  Heavy precipitations  Wind > 20 kt






- Airport Elevation : 95 ft
- IATA code : PTH


PAPH - Port Heiden

CURRENT METAR :
  • 252256Z AUTO 03019KT 10SM FEW033 M13/M18 A2963 RMK AO2 SLP036 T11281178 FZRANO

EXPIRED METARs :
  • 252156Z AUTO 03016KT 10SM CLR M13/M18 A2962 RMK AO2 SLP032 T11331183 FZRANO
  • 252056Z AUTO 03018KT 10SM FEW034 M14/M18 A2991 RMK AO2 SLP130 T11391183 53015 FZRANO

TAF N/A



MET'MAP, your aeronautical weather chart ! - Copyright ORBIFLY December 2007 - Disclaimer

ORBIFLY MET'MAP TEAM :

Programming & Development : Alexandra Zaïnal
Concept & original design : Baudouin d'Aumeries
Assistance for programming : Marc-Olivier Méhu
Technical & hardware support : Manuel Goepfert

Contact : metmap@orbifly.com




SOURCES & CREDITS :

   NOAA       Earth
Advisory